Time;durP1;ratioP1;P1;durP2;ratioP2;P2;SDS_P1;SDS_P2;PMS_P1;PMS_P2;Temp;Humidity;BMP_temperature;BMP_pressure;BME280_temperature;BME280_humidity;BME280_pressure;Samples;Min_cycle;Max_cycle;Signal;HPM_P1;HPM_P2
2022/01/05 00:00:10;;;;;;;1.40;1.30;;;;;;;4.95;100.00;96597.63;5055781;28;20623;-68
2022/01/05 00:02:39;;;;;;;1.07;1.00;;;;;;;5.06;100.00;96587.16;5056202;28;20201;-69
2022/01/05 00:05:07;;;;;;;1.40;1.27;;;;;;;4.94;100.00;96582.84;5055828;28;20655;-69
2022/01/05 00:07:33;;;;;;;1.40;1.30;;;;;;;4.95;100.00;96579.19;5056051;28;20294;-68
2022/01/05 00:10:00;;;;;;;0.97;0.97;;;;;;;4.96;100.00;96575.53;5056671;28;20204;-69
2022/01/05 00:12:26;;;;;;;1.37;0.90;;;;;;;4.99;100.00;96575.09;5059989;28;20519;-69
2022/01/05 00:14:53;;;;;;;1.87;0.90;;;;;;;5.13;100.00;96585.25;5059927;28;20208;-68
2022/01/05 00:17:19;;;;;;;1.20;1.00;;;;;;;5.02;100.00;96578.09;5059892;28;20221;-68
2022/01/05 00:19:46;;;;;;;1.77;0.80;;;;;;;5.07;100.00;96577.44;5059909;28;20205;-68
2022/01/05 00:22:12;;;;;;;1.03;0.60;;;;;;;5.07;100.00;96575.59;5059807;28;20194;-69
2022/01/05 00:24:41;;;;;;;0.63;0.60;;;;;;;5.02;100.00;96583.34;5059465;28;20627;-69
2022/01/05 00:27:08;;;;;;;0.50;0.50;;;;;;;5.03;100.00;96587.63;5059396;28;20257;-68
2022/01/05 00:29:34;;;;;;;0.60;0.60;;;;;;;5.02;100.00;96583.34;5059367;28;20604;-68
2022/01/05 00:32:01;;;;;;;0.60;0.50;;;;;;;4.99;100.00;96575.09;5059663;28;20216;-68
2022/01/05 00:34:27;;;;;;;1.03;0.50;;;;;;;4.94;100.00;96569.69;5059666;28;20298;-68
2022/01/05 00:36:53;;;;;;;0.50;0.50;;;;;;;4.96;100.00;96549.19;5059678;28;20235;-68
2022/01/05 00:39:20;;;;;;;0.50;0.40;;;;;;;5.15;100.00;96545.53;5059582;28;20208;-68
2022/01/05 00:41:47;;;;;;;0.30;0.30;;;;;;;4.92;100.00;96529.59;5059337;28;20213;-69
2022/01/05 00:44:13;;;;;;;0.50;0.50;;;;;;;4.85;100.00;96542.84;5059443;28;20204;-68
2022/01/05 00:46:40;;;;;;;0.50;0.50;;;;;;;4.88;100.00;96549.50;5059336;28;20276;-68
2022/01/05 00:49:06;;;;;;;2.20;0.40;;;;;;;4.84;100.00;96541.22;5059441;28;20207;-69
2022/01/05 00:51:33;;;;;;;0.47;0.33;;;;;;;4.85;100.00;96531.50;5058988;28;20523;-68
2022/01/05 00:53:59;;;;;;;0.30;0.30;;;;;;;4.83;100.00;96529.09;5059387;28;20193;-68
2022/01/05 00:56:26;;;;;;;0.30;0.30;;;;;;;4.81;100.00;96535.59;5059261;28;20217;-68
2022/01/05 00:58:52;;;;;;;0.30;0.30;;;;;;;4.77;100.00;96529.16;5059261;28;20528;-68
2022/01/05 01:01:19;;;;;;;0.50;0.30;;;;;;;4.80;100.00;96529.53;5059223;28;20209;-69
2022/01/05 01:03:45;;;;;;;0.23;0.23;;;;;;;4.80;99.89;96518.22;5058783;28;20200;-68
2022/01/05 01:06:12;;;;;;;0.30;0.30;;;;;;;4.79;99.82;96521.88;5058524;28;20316;-68
2022/01/05 01:08:39;;;;;;;0.30;0.30;;;;;;;4.82;99.80;96524.03;5059019;28;20506;-68
2022/01/05 01:11:05;;;;;;;0.37;0.37;;;;;;;4.78;99.14;96531.59;5058851;28;20224;-68
2022/01/05 01:13:32;;;;;;;0.20;0.20;;;;;;;4.78;100.00;96546.56;5058942;28;20208;-68
2022/01/05 01:15:59;;;;;;;0.40;0.30;;;;;;;4.78;98.65;96547.38;5058844;28;20308;-68
2022/01/05 01:18:26;;;;;;;0.20;0.20;;;;;;;4.84;99.09;96546.50;5058831;28;20237;-68
2022/01/05 01:20:53;;;;;;;0.20;0.20;;;;;;;4.89;99.57;96544.00;5058491;28;20200;-69
2022/01/05 01:23:22;;;;;;;0.30;0.30;;;;;;;4.80;98.77;96541.91;5058745;28;20209;-68
2022/01/05 01:25:50;;;;;;;0.30;0.30;;;;;;;4.86;99.20;96554.16;5058593;28;20502;-68
2022/01/05 01:28:17;;;;;;;0.30;0.30;;;;;;;4.90;98.22;96560.63;5058680;28;20205;-68
2022/01/05 01:30:44;;;;;;;0.30;0.20;;;;;;;4.95;97.76;96561.56;5058610;28;20506;-68
2022/01/05 01:33:10;;;;;;;0.40;0.30;;;;;;;4.94;97.69;96572.31;5058277;28;20205;-68
2022/01/05 01:35:36;;;;;;;0.30;0.30;;;;;;;4.87;99.39;96567.13;5058486;28;20197;-68
2022/01/05 01:38:03;;;;;;;0.30;0.30;;;;;;;4.85;98.89;96577.09;5058491;28;20205;-68
2022/01/05 01:40:30;;;;;;;0.30;0.30;;;;;;;4.88;97.70;96584.53;5058485;28;20251;-68
2022/01/05 01:42:56;;;;;;;0.43;0.30;;;;;;;4.98;95.78;96573.50;5058002;28;20604;-68
2022/01/05 01:45:23;;;;;;;0.67;0.40;;;;;;;4.94;96.87;96572.31;5058377;28;20197;-68
2022/01/05 01:47:50;;;;;;;0.37;0.37;;;;;;;4.97;98.57;96567.41;5057977;28;20601;-68
2022/01/05 01:50:16;;;;;;;0.23;0.23;;;;;;;4.95;97.85;96571.28;5057950;28;20280;-68
2022/01/05 01:52:43;;;;;;;0.40;0.40;;;;;;;4.95;97.91;96563.38;5058144;28;20303;-68
2022/01/05 01:55:11;;;;;;;0.33;0.33;;;;;;;5.00;98.53;96566.16;5058266;28;20194;-68
2022/01/05 01:57:41;;;;;;;0.77;0.37;;;;;;;5.02;97.85;96569.41;5058105;28;20221;-68
2022/01/05 02:00:08;;;;;;;0.27;0.27;;;;;;;5.03;97.50;96576.28;5058097;28;20510;-68
2022/01/05 02:02:34;;;;;;;0.30;0.30;;;;;;;5.06;96.89;96570.56;5058025;28;20198;-68
2022/01/05 02:05:03;;;;;;;0.33;0.33;;;;;;;5.07;98.88;96572.97;5058073;28;20194;-68
2022/01/05 02:07:29;;;;;;;0.33;0.33;;;;;;;5.05;97.63;96582.94;5057898;28;20308;-68
2022/01/05 02:09:56;;;;;;;0.30;0.30;;;;;;;5.08;98.97;96586.94;5057895;28;20193;-68
2022/01/05 02:12:26;;;;;;;0.20;0.20;;;;;;;5.06;97.91;96597.69;5057815;28;20401;-68
2022/01/05 02:14:53;;;;;;;0.30;0.30;;;;;;;5.10;97.89;96598.88;5057846;28;20203;-67
2022/01/05 02:17:23;;;;;;;0.53;0.30;;;;;;;5.05;97.52;96595.28;5057691;28;20308;-68
2022/01/05 02:19:50;;;;;;;0.30;0.30;;;;;;;5.10;97.33;96588.34;5057706;28;20280;-68
2022/01/05 02:22:17;;;;;;;0.27;0.27;;;;;;;5.09;97.85;96585.91;5057649;28;20276;-68
2022/01/05 02:24:47;;;;;;;0.40;0.40;;;;;;;5.11;97.88;96583.88;5057584;28;20198;-68
2022/01/05 02:27:14;;;;;;;0.30;0.30;;;;;;;5.18;96.70;96584.59;5057174;28;20229;-67
2022/01/05 02:29:41;;;;;;;0.47;0.40;;;;;;;5.16;96.83;96586.66;5057592;28;20200;-68
2022/01/05 02:32:07;;;;;;;0.30;0.30;;;;;;;5.21;96.50;96582.31;5057299;28;20221;-70
2022/01/05 02:34:34;;;;;;;0.40;0.33;;;;;;;5.20;97.47;96585.97;5056898;28;20210;-68
2022/01/05 02:37:00;;;;;;;0.30;0.30;;;;;;;5.13;98.37;96582.63;5057343;28;20244;-68
2022/01/05 02:39:27;;;;;;;0.50;0.50;;;;;;;5.15;98.48;96593.75;5057357;28;20212;-68
2022/01/05 02:41:54;;;;;;;0.40;0.40;;;;;;;5.16;98.30;96587.44;5056882;28;20620;-68
2022/01/05 02:44:20;;;;;;;1.00;0.40;;;;;;;5.20;97.74;96593.09;5056948;28;20205;-68
2022/01/05 02:46:47;;;;;;;0.40;0.40;;;;;;;5.17;98.20;96593.53;5056831;28;20312;-68
2022/01/05 02:49:13;;;;;;;0.50;0.50;;;;;;;5.21;96.38;96602.59;5056883;28;20608;-68
2022/01/05 02:51:40;;;;;;;0.30;0.30;;;;;;;5.22;96.66;96591.03;5056725;28;20627;-68
2022/01/05 02:54:06;;;;;;;0.60;0.50;;;;;;;5.22;97.38;96597.13;5057090;28;20197;-68
2022/01/05 02:56:33;;;;;;;0.40;0.40;;;;;;;5.27;96.52;96594.63;5056986;28;20221;-68
2022/01/05 02:59:00;;;;;;;0.67;0.53;;;;;;;5.31;95.95;96605.50;5056634;28;20592;-68
2022/01/05 03:01:26;;;;;;;0.50;0.50;;;;;;;5.27;95.91;96606.97;5056614;28;20200;-68
2022/01/05 03:03:52;;;;;;;0.60;0.50;;;;;;;5.26;96.45;96608.81;5056526;28;20568;-68
2022/01/05 03:06:19;;;;;;;1.30;0.53;;;;;;;5.28;97.27;96606.75;5056777;28;20236;-68
2022/01/05 03:08:45;;;;;;;0.63;0.40;;;;;;;5.23;96.59;96606.63;5056723;28;20208;-67
2022/01/05 03:11:12;;;;;;;0.53;0.43;;;;;;;5.24;96.55;96604.81;5056667;28;20285;-68
2022/01/05 03:13:38;;;;;;;0.50;0.40;;;;;;;5.21;96.63;96599.97;5056450;28;20205;-68
2022/01/05 03:16:05;;;;;;;0.53;0.53;;;;;;;5.20;96.72;96614.16;5056337;28;20670;-67
2022/01/05 03:18:31;;;;;;;0.50;0.50;;;;;;;5.15;97.11;96609.53;5056666;28;20205;-68
2022/01/05 03:20:58;;;;;;;0.50;0.50;;;;;;;5.18;98.07;96606.47;5056620;28;20201;-67
2022/01/05 03:23:24;;;;;;;0.40;0.40;;;;;;;5.17;97.72;96614.59;5056596;28;20192;-68
2022/01/05 03:25:50;;;;;;;2.40;0.50;;;;;;;5.19;98.47;96608.09;5056493;28;20528;-68
2022/01/05 03:28:17;;;;;;;0.40;0.40;;;;;;;5.16;96.68;96600.63;5056131;28;20189;-67
2022/01/05 03:30:43;;;;;;;0.30;0.30;;;;;;;5.15;98.87;96606.13;5056063;28;20201;-68
2022/01/05 03:33:11;;;;;;;0.40;0.40;;;;;;;5.18;95.81;96598.56;5056422;28;20219;-68
2022/01/05 03:35:41;;;;;;;0.40;0.40;;;;;;;5.19;95.78;96596.72;5056039;28;20692;-68
2022/01/05 03:38:08;;;;;;;0.60;0.50;;;;;;;5.19;96.80;96602.00;5055914;28;20205;-67
2022/01/05 03:40:36;;;;;;;0.30;0.30;;;;;;;5.17;96.46;96604.06;5056013;28;20584;-68
2022/01/05 03:43:04;;;;;;;0.43;0.40;;;;;;;5.27;95.94;96609.63;5056007;28;20205;-68
2022/01/05 03:45:31;;;;;;;0.40;0.40;;;;;;;5.21;95.39;96606.03;5059268;28;20284;-67
2022/01/05 03:47:58;;;;;;;1.63;0.40;;;;;;;5.23;95.79;96608.44;5060280;28;20279;-70
2022/01/05 03:50:25;;;;;;;0.30;0.30;;;;;;;5.18;96.65;96603.03;5060513;28;20208;-67
2022/01/05 03:52:51;;;;;;;0.20;0.20;;;;;;;5.19;95.90;96608.09;5060102;28;20210;-68
2022/01/05 03:55:18;;;;;;;0.50;0.40;;;;;;;5.17;96.59;96610.16;5060396;28;20201;-68
2022/01/05 03:57:44;;;;;;;0.70;0.50;;;;;;;5.18;94.98;96605.66;5060200;28;20524;-67
2022/01/05 04:00:12;;;;;;;0.20;0.20;;;;;;;5.18;95.00;96595.94;5060358;28;20205;-68
2022/01/05 04:02:39;;;;;;;0.20;0.20;;;;;;;5.20;94.45;96614.97;5059974;28;20315;-67
2022/01/05 04:05:06;;;;;;;0.30;0.30;;;;;;;5.13;95.97;96610.78;5059830;28;20205;-68
2022/01/05 04:07:32;;;;;;;0.20;0.20;;;;;;;5.18;95.32;96624.09;5059818;28;20232;-67
2022/01/05 04:09:59;;;;;;;0.60;0.30;;;;;;;5.17;95.11;96633.03;5059864;28;20201;-67
2022/01/05 04:12:25;;;;;;;0.30;0.30;;;;;;;5.14;95.38;96636.91;5060064;28;20209;-68
2022/01/05 04:14:52;;;;;;;0.20;0.20;;;;;;;5.16;94.70;96645.38;5059767;28;20258;-67
2022/01/05 04:17:18;;;;;;;0.20;0.20;;;;;;;5.19;94.12;96644.97;5059905;28;20221;-68
2022/01/05 04:19:45;;;;;;;0.30;0.30;;;;;;;5.15;94.47;96653.53;5059969;28;20212;-67
2022/01/05 04:22:12;;;;;;;0.30;0.30;;;;;;;5.14;94.11;96658.00;5059515;28;20618;-68
2022/01/05 04:24:38;;;;;;;0.63;0.30;;;;;;;5.12;95.79;96659.22;5059292;28;20632;-70
2022/01/05 04:27:05;;;;;;;0.50;0.40;;;;;;;5.10;95.69;96653.34;5059727;28;20221;-70
2022/01/05 04:29:32;;;;;;;0.30;0.30;;;;;;;5.07;96.60;96667.00;5059787;28;20284;-70
2022/01/05 04:31:58;;;;;;;0.43;0.23;;;;;;;5.00;97.46;96661.78;5059544;28;20217;-70
2022/01/05 04:34:24;;;;;;;2.30;0.30;;;;;;;4.97;98.05;96671.94;5059536;28;20501;-70
2022/01/05 04:36:51;;;;;;;2.20;0.50;;;;;;;4.93;100.00;96687.34;5058994;28;20714;-68
2022/01/05 04:39:18;;;;;;;0.33;0.33;;;;;;;4.91;100.00;96681.50;5058950;28;20201;-68
2022/01/05 04:41:44;;;;;;;0.30;0.30;;;;;;;4.90;100.00;96687.81;5058994;28;20221;-68
2022/01/05 04:44:11;;;;;;;0.23;0.20;;;;;;;4.90;100.00;96690.44;5059203;28;20224;-68
2022/01/05 04:46:37;;;;;;;0.30;0.30;;;;;;;4.90;100.00;96700.97;5059061;28;20226;-68
2022/01/05 04:49:05;;;;;;;0.20;0.20;;;;;;;4.87;100.00;96695.31;5058946;28;20263;-68
2022/01/05 04:51:32;;;;;;;0.30;0.30;;;;;;;4.85;100.00;96705.28;5059033;28;20193;-68
2022/01/05 04:53:58;;;;;;;0.43;0.40;;;;;;;4.91;100.00;96717.56;5059331;28;20205;-68
2022/01/05 04:56:25;;;;;;;0.43;0.40;;;;;;;4.88;100.00;96725.91;5058543;28;20225;-68
2022/01/05 04:58:51;;;;;;;0.60;0.30;;;;;;;4.87;100.00;96719.00;5059191;28;20200;-68
2022/01/05 05:01:18;;;;;;;0.40;0.40;;;;;;;4.91;100.00;96715.75;5058839;28;20205;-68
2022/01/05 05:03:45;;;;;;;0.30;0.30;;;;;;;4.82;100.00;96703.88;5058919;28;20205;-69
2022/01/05 05:06:12;;;;;;;0.30;0.30;;;;;;;4.81;100.00;96711.97;5058536;28;20228;-68
2022/01/05 05:08:38;;;;;;;0.20;0.20;;;;;;;4.80;100.00;96713.78;5058994;28;20247;-68
2022/01/05 05:11:05;;;;;;;0.40;0.40;;;;;;;4.82;100.00;96719.66;5058622;28;20202;-68
2022/01/05 05:13:31;;;;;;;0.33;0.33;;;;;;;4.81;100.00;96719.88;5058749;28;20229;-68
2022/01/05 05:15:58;;;;;;;0.43;0.43;;;;;;;4.84;100.00;96720.25;5058822;28;20221;-68
2022/01/05 05:18:24;;;;;;;0.40;0.40;;;;;;;4.83;100.00;96736.25;5058655;28;20201;-68
2022/01/05 05:20:51;;;;;;;1.60;0.50;;;;;;;4.56;97.50;96785.66;5058352;28;20197;-68
2022/01/05 05:23:17;;;;;;;0.60;0.53;;;;;;;3.73;98.53;96808.69;5058485;28;20219;-69
2022/01/05 05:25:44;;;;;;;0.60;0.60;;;;;;;3.12;99.93;96810.78;5058075;28;20288;-68
2022/01/05 05:28:11;;;;;;;0.87;0.87;;;;;;;2.89;100.00;96809.59;5058185;28;20205;-68
2022/01/05 05:30:37;;;;;;;0.70;0.67;;;;;;;2.72;99.98;96832.78;5058563;28;20201;-68
2022/01/05 05:33:04;;;;;;;1.03;0.90;;;;;;;2.43;100.00;96846.22;5058110;28;20666;-68
2022/01/05 05:35:33;;;;;;;1.03;0.80;;;;;;;2.27;100.00;96849.22;5058342;28;20197;-68
2022/01/05 05:38:00;;;;;;;1.33;1.23;;;;;;;2.23;100.00;96865.53;5058120;28;20205;-69
2022/01/05 05:40:27;;;;;;;1.00;0.90;;;;;;;2.03;100.00;96860.19;5058378;28;20202;-69
2022/01/05 05:42:53;;;;;;;0.90;0.90;;;;;;;2.02;100.00;96878.72;5057882;28;20209;-69
2022/01/05 05:45:20;;;;;;;1.27;1.20;;;;;;;1.97;100.00;96894.22;5058089;28;20208;-69
2022/01/05 05:47:47;;;;;;;2.20;1.50;;;;;;;1.95;100.00;96893.63;5057842;28;20247;-69
2022/01/05 05:50:13;;;;;;;1.60;1.50;;;;;;;1.95;100.00;96909.34;5057753;28;20572;-69
2022/01/05 05:52:40;;;;;;;1.93;1.83;;;;;;;1.83;100.00;96919.56;5057516;28;20218;-69
2022/01/05 05:55:07;;;;;;;1.80;1.70;;;;;;;1.99;100.00;96923.69;5057776;28;20208;-69
2022/01/05 05:57:33;;;;;;;2.23;1.77;;;;;;;2.00;100.00;96922.69;5057508;28;20702;-69
2022/01/05 06:00:00;;;;;;;2.43;1.57;;;;;;;2.11;100.00;96928.19;5057458;28;20248;-69
2022/01/05 06:02:26;;;;;;;1.70;1.17;;;;;;;2.05;100.00;96930.78;5057116;28;20545;-69
2022/01/05 06:04:53;;;;;;;1.53;1.30;;;;;;;2.14;100.00;96937.47;5058023;28;20466;-69
2022/01/05 06:07:19;;;;;;;1.90;1.40;;;;;;;2.22;100.00;96943.34;5056981;28;20228;-69
2022/01/05 06:09:46;;;;;;;1.33;1.30;;;;;;;2.28;100.00;96939.97;5057171;28;20243;-68
2022/01/05 06:12:13;;;;;;;2.27;1.50;;;;;;;2.33;100.00;96947.25;5057504;28;20214;-68
2022/01/05 06:14:39;;;;;;;1.87;1.40;;;;;;;2.41;100.00;96941.84;5057275;28;20189;-69
2022/01/05 06:17:06;;;;;;;1.33;1.23;;;;;;;2.47;100.00;96948.94;5056982;28;20544;-69
2022/01/05 06:19:33;;;;;;;1.57;1.30;;;;;;;2.54;100.00;96953.22;5057169;28;20190;-69
2022/01/05 06:21:59;;;;;;;1.53;1.43;;;;;;;2.59;100.00;96970.97;5057934;28;20251;-69
2022/01/05 06:24:26;;;;;;;1.63;1.53;;;;;;;2.54;100.00;96974.22;5057173;28;20280;-69
2022/01/05 06:26:53;;;;;;;2.17;1.37;;;;;;;2.67;99.82;96979.50;5057321;28;20225;-69
2022/01/05 06:29:21;;;;;;;2.87;1.80;;;;;;;2.68;100.00;96989.00;5057331;28;20189;-69
2022/01/05 06:31:48;;;;;;;1.73;1.20;;;;;;;2.63;100.00;96990.59;5057368;28;20284;-69
2022/01/05 06:34:14;;;;;;;2.10;1.30;;;;;;;2.61;99.87;97000.44;5056809;28;20210;-69
2022/01/05 06:36:41;;;;;;;2.40;1.87;;;;;;;2.68;100.00;97002.13;5056816;28;20644;-68
2022/01/05 06:39:08;;;;;;;1.67;1.50;;;;;;;2.78;99.95;97007.81;5056587;28;20288;-69
2022/01/05 06:41:34;;;;;;;2.90;1.63;;;;;;;2.70;98.73;97018.47;5056894;28;20219;-69
2022/01/05 06:44:00;;;;;;;1.93;1.50;;;;;;;2.77;99.98;97013.25;5056842;28;20197;-69
2022/01/05 06:46:27;;;;;;;1.93;1.47;;;;;;;2.84;98.96;97020.13;5056573;28;20652;-70
2022/01/05 06:48:53;;;;;;;2.40;1.33;;;;;;;2.89;99.62;97022.19;5056641;28;20601;-69
2022/01/05 06:51:20;;;;;;;1.63;1.20;;;;;;;2.75;98.25;97023.13;5056880;28;20202;-70
2022/01/05 06:53:46;;;;;;;1.63;1.50;;;;;;;2.78;99.89;97048.97;5056531;28;20213;-69
2022/01/05 06:56:13;;;;;;;1.27;0.93;;;;;;;2.65;98.72;97038.41;5056811;28;20221;-70
2022/01/05 06:58:39;;;;;;;1.30;1.20;;;;;;;2.57;99.47;97047.25;5057314;28;20190;-70
2022/01/05 07:01:06;;;;;;;1.83;1.50;;;;;;;2.53;100.00;97048.63;5056765;28;20192;-70
2022/01/05 07:03:32;;;;;;;1.57;1.10;;;;;;;2.50;100.00;97056.91;5056345;28;20239;-69
2022/01/05 07:05:59;;;;;;;3.40;1.47;;;;;;;2.56;100.00;97061.38;5057185;28;20221;-69
2022/01/05 07:08:25;;;;;;;1.63;1.53;;;;;;;2.61;100.00;97052.91;5056628;28;20201;-69
2022/01/05 07:10:52;;;;;;;1.70;1.40;;;;;;;2.60;100.00;97053.91;5056390;28;20201;-69
2022/01/05 07:13:18;;;;;;;2.83;1.43;;;;;;;2.66;100.00;97059.22;5056115;28;20271;-70
2022/01/05 07:15:45;;;;;;;2.70;1.23;;;;;;;2.59;100.00;97054.94;5056236;28;20257;-69
2022/01/05 07:18:11;;;;;;;1.70;1.13;;;;;;;2.48;100.00;97063.34;5056427;28;20198;-69
2022/01/05 07:20:37;;;;;;;2.37;1.17;;;;;;;2.46;100.00;97070.59;5055970;28;20612;-70
2022/01/05 07:23:04;;;;;;;2.50;1.20;;;;;;;2.45;100.00;97087.34;5056144;28;20238;-69
2022/01/05 07:25:30;;;;;;;1.53;1.43;;;;;;;2.40;100.00;97080.03;5055948;28;20605;-70
2022/01/05 07:27:57;;;;;;;1.50;1.40;;;;;;;2.51;100.00;97092.63;5056225;28;20288;-69
2022/01/05 07:30:24;;;;;;;1.17;1.00;;;;;;;2.63;96.73;97106.03;5056057;28;20196;-69
2022/01/05 07:32:51;;;;;;;1.17;1.00;;;;;;;2.63;96.70;97106.03;5056225;28;20318;-69
2022/01/05 07:35:18;;;;;;;1.30;1.07;;;;;;;2.59;93.74;97107.41;5056058;28;20200;-69
2022/01/05 07:37:44;;;;;;;4.17;1.13;;;;;;;2.62;91.56;97117.53;5055776;28;20229;-69
2022/01/05 07:40:12;;;;;;;1.40;1.10;;;;;;;2.52;91.81;97127.56;5056259;28;20197;-69
2022/01/05 07:42:38;;;;;;;4.63;1.50;;;;;;;2.53;95.14;97114.22;5055623;28;20213;-69
2022/01/05 07:45:07;;;;;;;1.80;1.10;;;;;;;2.51;93.23;97118.03;5055762;28;20196;-69
2022/01/05 07:47:34;;;;;;;3.17;1.30;;;;;;;2.49;93.69;97123.47;5055640;28;20256;-68
2022/01/05 07:50:01;;;;;;;2.20;1.00;;;;;;;2.51;92.04;97131.16;5055532;28;20197;-69
2022/01/05 07:52:28;;;;;;;2.70;1.00;;;;;;;2.46;91.19;97136.16;5055529;28;20573;-69
2022/01/05 07:54:55;;;;;;;2.87;1.50;;;;;;;2.43;92.62;97131.31;5055779;28;20200;-68
2022/01/05 07:57:21;;;;;;;3.30;1.50;;;;;;;2.41;92.83;97136.75;5055894;28;20217;-68
2022/01/05 07:59:47;;;;;;;1.23;1.10;;;;;;;2.34;91.69;97140.31;5056031;28;20189;-69
2022/01/05 08:02:14;;;;;;;3.33;1.70;;;;;;;2.31;91.64;97151.19;5055618;28;20205;-68
2022/01/05 08:04:40;;;;;;;3.30;2.17;;;;;;;2.27;93.53;97148.13;5055841;28;20197;-67
2022/01/05 08:07:07;;;;;;;3.00;1.90;;;;;;;2.32;93.18;97151.00;5056510;28;20508;-70
2022/01/05 08:09:34;;;;;;;2.07;1.57;;;;;;;2.30;90.35;97166.09;5055985;28;20197;-68
2022/01/05 08:12:00;;;;;;;4.10;1.80;;;;;;;2.32;91.03;97164.13;5055701;28;20243;-68
2022/01/05 08:14:27;;;;;;;4.67;1.93;;;;;;;2.29;90.99;97158.41;5055563;28;20232;-68
2022/01/05 08:16:53;;;;;;;3.33;1.87;;;;;;;2.26;89.26;97159.59;5055543;28;20223;-69
2022/01/05 08:19:20;;;;;;;2.63;1.20;;;;;;;2.26;89.11;97164.84;5055977;28;20276;-69
2022/01/05 08:21:46;;;;;;;4.30;1.87;;;;;;;2.22;90.83;97181.94;5055489;28;20515;-69
2022/01/05 08:24:12;;;;;;;1.90;1.70;;;;;;;2.21;90.04;97182.97;5055875;28;20186;-69
2022/01/05 08:26:39;;;;;;;3.53;1.60;;;;;;;2.29;87.85;97189.88;5055572;28;20644;-69
2022/01/05 08:29:05;;;;;;;2.73;1.70;;;;;;;2.26;90.60;97208.63;5055735;28;20198;-69
2022/01/05 08:31:32;;;;;;;3.47;2.00;;;;;;;2.19;89.17;97212.97;5057110;28;20237;-69
2022/01/05 08:33:59;;;;;;;3.67;1.97;;;;;;;2.20;86.22;97217.22;5059161;28;20519;-68
2022/01/05 08:36:26;;;;;;;3.33;1.63;;;;;;;2.19;87.38;97236.56;5059475;28;20252;-68
2022/01/05 08:38:53;;;;;;;3.53;1.70;;;;;;;2.13;86.15;97216.34;5059501;28;20190;-68
2022/01/05 08:41:20;;;;;;;3.30;1.60;;;;;;;2.07;88.78;97227.59;5059195;28;20217;-68
2022/01/05 08:43:46;;;;;;;5.03;1.57;;;;;;;2.06;86.18;97246.94;5058980;28;20193;-68
2022/01/05 08:46:13;;;;;;;5.63;1.77;;;;;;;1.98;86.92;97247.06;5059302;28;20225;-69
2022/01/05 08:48:42;;;;;;;2.60;2.00;;;;;;;1.91;89.35;97244.38;5059003;28;20220;-69
2022/01/05 08:51:09;;;;;;;4.87;1.63;;;;;;;1.97;85.20;97248.84;5059250;28;20243;-68
2022/01/05 08:53:35;;;;;;;3.03;1.57;;;;;;;1.90;83.68;97253.19;5058797;28;20229;-67
2022/01/05 08:56:02;;;;;;;5.37;1.50;;;;;;;1.94;85.12;97251.03;5058702;28;20663;-68
2022/01/05 08:58:29;;;;;;;4.13;1.70;;;;;;;1.89;84.28;97267.31;5058667;28;20201;-69
2022/01/05 09:00:55;;;;;;;3.67;2.03;;;;;;;1.86;84.98;97283.41;5058624;28;20211;-71
2022/01/05 09:03:22;;;;;;;4.00;1.70;;;;;;;1.90;82.14;97289.09;5058958;28;20190;-69
2022/01/05 09:05:48;;;;;;;3.83;2.20;;;;;;;1.88;85.24;97284.03;5058894;28;20739;-69
2022/01/05 09:08:15;;;;;;;3.10;1.67;;;;;;;1.98;83.58;97294.25;5059518;28;20422;-70
2022/01/05 09:10:43;;;;;;;4.67;2.10;;;;;;;2.14;82.58;97286.97;5058593;28;20422;-69
2022/01/05 09:13:11;;;;;;;2.37;1.80;;;;;;;2.18;82.44;97288.22;5058692;28;20781;-70
2022/01/05 09:15:38;;;;;;;3.07;1.63;;;;;;;2.15;81.15;97308.72;5058378;28;20492;-69
2022/01/05 09:18:05;;;;;;;3.70;1.90;;;;;;;2.19;84.36;97302.13;5058325;28;20194;-70
2022/01/05 09:20:32;;;;;;;5.07;2.00;;;;;;;2.21;82.41;97308.81;5058309;28;20209;-69
2022/01/05 09:22:58;;;;;;;4.60;1.90;;;;;;;2.14;84.49;97318.44;5058520;28;20201;-69
2022/01/05 09:25:25;;;;;;;4.90;1.77;;;;;;;2.25;83.56;97319.75;5058670;28;20189;-70
2022/01/05 09:27:52;;;;;;;3.47;1.80;;;;;;;2.22;83.05;97330.59;5058127;28;20430;-69
2022/01/05 09:30:20;;;;;;;4.57;1.97;;;;;;;2.35;85.45;97328.94;5058869;28;20193;-70
2022/01/05 09:32:47;;;;;;;6.23;2.20;;;;;;;2.36;84.90;97337.63;5057784;28;20189;-70
2022/01/05 09:35:18;;;;;;;4.43;1.97;;;;;;;2.47;87.26;97327.47;5058711;28;20189;-69
2022/01/05 09:37:54;;;;;;;5.70;2.23;;;;;;;2.40;85.74;97338.88;5058031;28;20232;-69
2022/01/05 09:43:08;;;;;;;6.03;2.03;;;;;;;2.42;82.70;97347.38;5057694;28;20551;-69
2022/01/05 09:45:38;;;;;;;5.53;1.80;;;;;;;2.41;82.31;97357.06;5058130;28;20202;-70
2022/01/05 09:48:38;;;;;;;6.70;2.37;;;;;;;2.49;81.85;97362.19;5057689;28;20201;-69
2022/01/05 09:51:09;;;;;;;4.37;1.90;;;;;;;2.39;78.66;97364.28;5058109;28;20217;-70
2022/01/05 09:53:36;;;;;;;5.03;1.87;;;;;;;2.29;76.80;97365.56;5057716;28;20218;-70
2022/01/05 09:56:05;;;;;;;3.70;1.20;;;;;;;2.38;78.26;97370.53;5057598;28;20524;-69
2022/01/05 09:58:33;;;;;;;6.80;1.87;;;;;;;2.25;76.14;97374.84;5057572;28;20209;-69
2022/01/05 10:00:59;;;;;;;6.47;1.77;;;;;;;2.20;76.17;97370.13;5057964;28;20228;-69
2022/01/05 10:03:26;;;;;;;6.37;1.80;;;;;;;2.10;76.65;97387.13;5057359;28;20545;-69
2022/01/05 10:05:53;;;;;;;4.70;1.60;;;;;;;2.07;74.51;97380.44;5057731;28;20458;-69
2022/01/05 10:08:20;;;;;;;4.20;2.07;;;;;;;1.91;75.42;97377.19;5057543;28;20376;-69
2022/01/05 10:10:47;;;;;;;4.40;1.87;;;;;;;2.00;77.82;97379.56;5057376;28;20608;-69
2022/01/05 10:13:13;;;;;;;3.13;1.40;;;;;;;2.10;75.11;97393.19;5057563;28;20201;-69
2022/01/05 10:15:40;;;;;;;6.37;1.43;;;;;;;2.11;75.53;97384.31;5057250;28;20207;-68
2022/01/05 10:18:16;;;;;;;4.90;1.60;;;;;;;2.19;75.83;97394.72;5057170;28;20205;-69
2022/01/05 10:21:01;;;;;;;3.80;1.60;;;;;;;1.96;75.69;97391.41;5057590;28;20193;-70
2022/01/05 10:23:36;;;;;;;7.13;1.60;;;;;;;1.89;74.81;97403.59;5057502;28;20205;-69
2022/01/05 10:26:22;;;;;;;5.17;1.87;;;;;;;1.85;73.97;97391.84;5057281;28;20220;-69
2022/01/05 10:28:50;;;;;;;6.10;1.57;;;;;;;1.86;71.97;97398.72;5057225;28;20276;-69
2022/01/05 10:31:19;;;;;;;4.90;1.63;;;;;;;1.86;73.54;97403.13;5056902;28;20335;-69
2022/01/05 10:33:45;;;;;;;6.57;1.60;;;;;;;1.96;73.28;97399.25;5056715;28;20628;-69
2022/01/05 10:36:12;;;;;;;5.67;1.60;;;;;;;2.18;71.84;97400.97;5057018;28;20457;-69
2022/01/05 10:38:41;;;;;;;5.90;1.70;;;;;;;2.38;73.67;97406.44;5056769;28;20185;-69
2022/01/05 10:41:18;;;;;;;4.37;1.53;;;;;;;2.36;71.27;97401.41;5056564;28;20213;-68
2022/01/05 10:44:21;;;;;;;6.57;1.53;;;;;;;2.53;70.86;97407.25;5056613;28;20581;-69
2022/01/05 10:46:54;;;;;;;7.03;1.53;;;;;;;2.72;69.58;97417.97;5056637;28;20227;-69
2022/01/05 10:49:26;;;;;;;6.77;1.83;;;;;;;2.76;67.32;97421.03;5056686;28;20675;-68
2022/01/05 10:51:53;;;;;;;5.00;1.50;;;;;;;2.76;66.88;97429.69;5057031;28;20189;-68
2022/01/05 10:54:22;;;;;;;5.87;1.53;;;;;;;2.81;69.83;97426.53;5055991;28;20517;-69
2022/01/05 10:56:50;;;;;;;5.33;1.57;;;;;;;2.77;65.55;97426.09;5056645;28;20221;-69
2022/01/05 10:59:35;;;;;;;4.83;1.60;;;;;;;2.81;66.14;97434.41;5056432;28;20190;-69
2022/01/05 11:02:19;;;;;;;6.43;1.80;;;;;;;2.65;65.99;97432.81;5056666;28;20193;-69
2022/01/05 11:04:46;;;;;;;7.90;1.53;;;;;;;2.64;65.77;97425.94;5056617;28;20185;-70
2022/01/05 11:07:20;;;;;;;7.27;1.60;;;;;;;2.62;65.69;97432.38;5056124;28;20257;-69
2022/01/05 11:10:06;;;;;;;5.93;1.67;;;;;;;2.91;67.63;97430.47;5056525;28;20243;-69
2022/01/05 11:12:38;;;;;;;7.47;2.03;;;;;;;3.22;66.73;97423.13;5056206;28;20185;-70
2022/01/05 11:15:17;;;;;;;6.67;1.90;;;;;;;3.35;67.17;97436.34;5056372;28;20225;-69
2022/01/05 11:18:16;;;;;;;4.90;1.70;;;;;;;3.64;66.52;97456.41;5056186;28;20644;-69
2022/01/05 11:20:46;;;;;;;3.83;1.47;;;;;;;3.15;65.13;97422.22;5056441;28;20202;-69
2022/01/05 11:23:13;;;;;;;4.67;1.63;;;;;;;3.10;64.93;97426.41;5056435;28;20193;-69
2022/01/05 11:25:42;;;;;;;8.80;1.93;;;;;;;3.07;65.31;97432.06;5056026;28;20287;-69
2022/01/05 11:28:09;;;;;;;5.33;1.70;;;;;;;3.21;65.82;97428.56;5056278;28;20189;-69
2022/01/05 11:30:37;;;;;;;8.10;2.30;;;;;;;3.00;65.73;97439.88;5056390;28;20193;-69
2022/01/05 11:33:05;;;;;;;6.57;1.60;;;;;;;2.88;65.62;97430.84;5056334;28;20190;-70
2022/01/05 11:35:33;;;;;;;8.07;2.00;;;;;;;2.79;67.14;97434.56;5055962;28;20292;-69
2022/01/05 11:38:00;;;;;;;5.10;1.73;;;;;;;2.85;68.60;97435.66;5056104;28;20204;-69
2022/01/05 11:40:27;;;;;;;5.00;1.93;;;;;;;2.75;66.40;97449.06;5056115;28;20212;-69
2022/01/05 11:43:00;;;;;;;7.40;1.87;;;;;;;2.60;67.63;97443.03;5055885;28;20209;-69